Terminal Aerodrome Forecast
Issued by NWS

Home | Current Version | Previous Version | Text Only | Print | Product List | Glossary On
Versions: 1 2 3 4 5 6 7 8 9 10 11 12 13 14
000
FTUS44 KMAF 182300
TAFINK
TAF
KINK 182330Z 1900/1924 08011G19KT P6SM BKN040 OVC060
      TEMPO 1900/1904 5SM TSRA BKN020CB
     FM190400 11010KT P6SM OVC030
      TEMPO 1904/1908 4SM TSRA BR BKN020CB
     FM190800 11012KT P6SM OVC020
      TEMPO 1908/1912 4SM TSRA BR OVC010CB
     FM191200 12011KT P6SM OVC020
      TEMPO 1912/1916 4SM TSRA BR OVC010CB
     FM191600 13012KT P6SM OVC030
      TEMPO 1916/1920 5SM TSRA OVC020CB=

USA.gov is the U.S. government's official web portal to all federal, state and local government web resources and services.